Aeroporto :
LOGIN :

Iscrizione | Disclaimer

   EN    FR    IT 

 










Sommario :    VFR   VFR Marginale   IFR   IFR Intensivo   IFR Molto Intensivo
Visibilità : 
Base nubi : 
>= 8 km
>= 3000ft
5 / 8 km
1000 / 3000 ft
1500m / 5 km
500 / 1000 ft
800 / 1500m
200 / 500 ft
< 800m
< 200 ft
Simboli :   Temporali  Nebbia  Neve Forte  Precipitazioni Forti  Vento > 20 kt
SIGMETs :   Varie  Temporali  Ghiacco  Turbolenza  Onda orograficha  Ceneri Vulcaniche







- Altitudine del aeroporto : 187 ft


ETNW - Wunstorf AB

ULTIMO METAR :
  • 211720Z 27008KT 5000 BR SCT010 BKN017 09/08 Q1025 WHT

METARs OBSOLETI :
  • 211620Z 26011KT 4500 BR SCT007 BKN014 10/08 Q1025 GRN FCST CANCEL
  • 211520Z 27010KT 6000 -RADZ SCT015 BKN018 10/07 Q1025 WHT WHT BECMG GRN

TAF TAF ETNW
Valido dal 21 a 12 ore il 22 a 12 ore UTC


211110Z 2112/2212 25010KT 9999 NSW SCT014 BKN050
BECMG 2113/2115 26012KT 8000 NSW BKN012 BKN020
TEMPO 2115/2120 27015KT 3000 DZRA BKN004 OVC007
BECMG 2120/2122 29006KT 5000 BR OVC004
TEMPO 2122/2206 VRB03KT 0500 FG OVC001
BECMG 2206/2208 04010KT 9999 NSW BKN020
TEMPO 2208/2212 07010KT 5000 BR BKN012 BY ETGL
Nessun NOTAM noto per questo aeroporto.



MetMap, La meteo Aeronautica in un colpo d'occhio ! - Copyright ORBIFLY Dicembre 2007 - Disclaimer

ORBIFLY MET'MAP TEAM :

Programmazione e sviluppo : Alexandra Zaïnal
Concezione e sviluppo : Baudouin d'Aumeries
Co-Programmazione e sviluppo : Marc-Olivier Méhu
Supporto tecnico e logistico : Manuel Goepfert
Aiuto per la traduzione : Arnaldo La Scala

Contatto : metmap@orbifly.com




FONTI E CREDITI :

   NOAA